createdAt,value
2019-04-27T00:06:46.251Z,91.2
2019-04-27T00:21:53.158Z,90.5
2019-04-27T00:37:07.082Z,90.3
2019-04-27T00:52:21.143Z,89.9
2019-04-27T01:07:33.694Z,90
2019-04-27T01:22:49.509Z,89.8
2019-04-27T01:38:03.536Z,88.9
2019-04-27T01:53:19.335Z,88.1
2019-04-27T02:08:22.862Z,84.2
2019-04-27T02:23:46.257Z,84.2
2019-04-27T02:39:00.872Z,82.8
2019-04-27T02:54:14.439Z,82.6
2019-04-27T03:09:30.804Z,82.7
2019-04-27T03:24:41.413Z,82.3
2019-04-27T03:39:59.936Z,82
2019-04-27T03:55:11.308Z,82.1
2019-04-27T04:10:25.543Z,83.3
2019-04-27T04:25:33.500Z,82.7
2019-04-27T04:40:54.192Z,83.3
2019-04-27T04:56:10.837Z,83.3
2019-04-27T05:11:22.842Z,84
2019-04-27T05:26:37.477Z,84.6
2019-04-27T05:41:50.985Z,84.4
2019-04-27T05:57:06.085Z,82.6
2019-04-27T06:12:20.452Z,80.7
2019-04-27T06:27:35.099Z,78.7
2019-04-27T06:42:43.292Z,76.1
2019-04-27T06:58:04.593Z,75.8
2019-04-27T07:13:19.826Z,72.8
2019-04-27T07:28:34.492Z,68.3
2019-04-27T07:43:37.315Z,65
2019-04-27T07:59:05.080Z,60.8
2019-04-27T08:14:21.350Z,58
2019-04-27T08:29:36.627Z,56.2
2019-04-27T08:44:52.486Z,53.4
2019-04-27T09:00:04.390Z,51.2
2019-04-27T09:15:24.667Z,50.8
2019-04-27T09:30:41.536Z,47.1
2019-04-27T09:45:58.318Z,40.5
2019-04-27T10:01:03.915Z,41.6
2019-04-27T10:16:31.800Z,39.5
2019-04-27T10:31:48.709Z,37.7
2019-04-27T10:47:06.263Z,32.8
2019-04-27T11:02:22.777Z,31.4
2019-04-27T11:17:37.344Z,34.9
2019-04-27T11:32:59.415Z,40.2
2019-04-27T11:48:12.806Z,34.5
2019-04-27T12:03:29.854Z,26.5
2019-04-27T12:18:36.730Z,24.5
2019-04-27T12:34:06.824Z,20.8
2019-04-27T12:49:26.473Z,20.1
2019-04-27T13:04:46.966Z,17.9
2019-04-27T13:20:06.895Z,16.5
2019-04-27T13:35:16.029Z,16.2
2019-04-27T13:50:45.964Z,18.6
2019-04-27T14:06:05.524Z,20.4
2019-04-27T14:21:23.270Z,21.3
2019-04-27T14:36:40.966Z,25.5
2019-04-27T14:51:49.258Z,27.6
2019-04-27T15:07:16.426Z,28.7
2019-04-27T15:22:34.039Z,28.2
2019-04-27T15:37:51.637Z,29.3
2019-04-27T15:53:12.768Z,29.9
2019-04-27T16:08:22.477Z,26.8
2019-04-27T16:23:48.283Z,24.8
2019-04-27T16:39:09.991Z,24.5
2019-04-27T16:54:24.273Z,24.8
2019-04-27T17:09:46.467Z,24.6
2019-04-27T17:24:54.988Z,27.4
2019-04-27T17:40:17.311Z,32.2
2019-04-27T17:55:34.202Z,31.7
2019-04-27T18:10:57.849Z,28.7
2019-04-27T18:26:06.939Z,37.9
2019-04-27T18:41:22.496Z,48.3
2019-04-27T18:56:41.662Z,54.4
2019-04-27T19:11:56.764Z,57
2019-04-27T19:27:20.597Z,58.2
2019-04-27T19:42:22.962Z,60
2019-04-27T19:57:42.088Z,60.5
2019-04-27T20:12:52.799Z,62.7
2019-04-27T20:28:07.729Z,63.3
2019-04-27T20:43:10.765Z,59.7
2019-04-27T20:58:37.567Z,59.8
2019-04-27T21:13:56.807Z,60.2
2019-04-27T21:29:07.105Z,58.4
2019-04-27T21:44:22.164Z,58.2
2019-04-27T21:59:33.307Z,56.3
2019-04-27T22:14:53.295Z,57.3
2019-04-27T22:30:06.566Z,56.8
2019-04-27T22:45:21.382Z,53.9
2019-04-27T23:00:25.999Z,57
2019-04-27T23:15:51.515Z,64.6
2019-04-27T23:31:04.165Z,73.7
2019-04-27T23:46:18.285Z,77.5
